createdAt,value
2019-03-22T00:02:17.086Z,5.31
2019-03-22T00:08:12.058Z,4.63
2019-03-22T00:14:07.116Z,5.17
2019-03-22T00:20:02.069Z,4.55
2019-03-22T00:25:57.071Z,4.48
2019-03-22T00:31:52.325Z,3.68
2019-03-22T00:37:47.109Z,3.9
2019-03-22T00:43:42.104Z,3.12
2019-03-22T00:49:37.088Z,3.64
2019-03-22T00:55:32.088Z,3.38
2019-03-22T01:01:27.076Z,3.66
2019-03-22T01:07:22.151Z,4.06
2019-03-22T01:13:17.090Z,3.77
2019-03-22T01:19:12.119Z,4.2
2019-03-22T01:25:07.142Z,4.5
2019-03-22T01:31:02.120Z,4.15
2019-03-22T01:36:57.500Z,4.4
2019-03-22T01:42:52.100Z,4.48
2019-03-22T01:48:47.150Z,4.53
2019-03-22T01:54:42.113Z,5.2
2019-03-22T02:00:37.110Z,3.87
2019-03-22T02:06:32.207Z,4.03
2019-03-22T02:12:27.170Z,4.2
2019-03-22T02:18:22.137Z,4.8
2019-03-22T02:24:17.167Z,4.55
2019-03-22T02:30:12.157Z,3.89
2019-03-22T02:36:07.158Z,2.53
2019-03-22T02:42:02.175Z,3.83
2019-03-22T02:47:57.175Z,3.35
2019-03-22T02:53:52.144Z,3.29
2019-03-22T02:59:47.156Z,3.2
2019-03-22T03:05:42.172Z,2.95
2019-03-22T03:11:37.183Z,2.98
2019-03-22T03:17:32.197Z,3.05
2019-03-22T03:23:27.162Z,3.02
2019-03-22T03:29:22.189Z,2.89
2019-03-22T03:35:17.199Z,3.14
2019-03-22T03:41:12.222Z,3.09
2019-03-22T03:47:10.220Z,3.02
2019-03-22T03:53:02.254Z,3.11
2019-03-22T03:58:57.200Z,3.21
2019-03-22T04:04:52.228Z,3.24
2019-03-22T04:10:47.200Z,3.05
2019-03-22T04:16:42.219Z,3.07
2019-03-22T04:22:37.211Z,2.68
2019-03-22T04:28:32.247Z,2.96
2019-03-22T04:34:27.260Z,2.56
2019-03-22T04:40:22.260Z,2.81
2019-03-22T04:46:17.248Z,22.63
2019-03-22T04:52:12.295Z,3.01
2019-03-22T04:58:07.222Z,2.65
2019-03-22T05:04:02.243Z,2.98
2019-03-22T05:09:57.240Z,3.31
2019-03-22T05:15:52.281Z,3.2
2019-03-22T05:21:47.302Z,2.69
2019-03-22T05:33:37.269Z,3.05
2019-03-22T05:33:37.317Z,3.31
2019-03-22T05:39:32.274Z,2.94
2019-03-22T05:45:27.279Z,3.23
2019-03-22T05:51:22.302Z,2.91
2019-03-22T05:57:17.286Z,5.12
2019-03-22T06:03:12.330Z,3.86
2019-03-22T06:09:07.283Z,3.61
2019-03-22T06:15:02.360Z,3.19
2019-03-22T06:26:52.294Z,3.37
2019-03-22T06:26:52.331Z,3.6
2019-03-22T06:32:47.297Z,3.94
2019-03-22T06:38:42.338Z,4.5
2019-03-22T06:44:37.385Z,5.18
2019-03-22T06:50:32.319Z,4.46
2019-03-22T06:56:27.308Z,4.77
2019-03-22T07:02:22.316Z,5.56
2019-03-22T07:08:17.348Z,5.87
2019-03-22T07:14:12.353Z,4.3
2019-03-22T07:20:07.365Z,4.63
2019-03-22T07:26:02.336Z,4.45
2019-03-22T07:31:57.637Z,3.17
2019-03-22T07:37:52.341Z,3.36
2019-03-22T07:43:47.369Z,3.29
2019-03-22T07:49:42.400Z,2.84
2019-03-22T07:55:37.391Z,2.58
2019-03-22T08:01:32.348Z,3.05
2019-03-22T08:07:27.393Z,3.13
2019-03-22T08:13:22.404Z,2.86
2019-03-22T08:19:17.353Z,3.85
2019-03-22T08:25:12.366Z,3.97
2019-03-22T08:31:07.390Z,3.77
2019-03-22T08:37:02.392Z,3.13
2019-03-22T08:42:57.512Z,3.59
2019-03-22T08:48:52.387Z,3.08
2019-03-22T08:54:47.396Z,3.43
2019-03-22T09:00:56.245Z,2.65
2019-03-22T09:06:37.388Z,2.55
2019-03-22T09:12:32.410Z,2.75
2019-03-22T09:18:27.442Z,6.69
2019-03-22T09:24:22.412Z,2.69
2019-03-22T09:30:17.440Z,2.83
2019-03-22T09:36:12.488Z,2.25
2019-03-22T09:42:07.398Z,2.38
2019-03-22T09:48:02.412Z,2.79
2019-03-22T09:53:57.732Z,2.52
2019-03-22T09:59:52.454Z,2.81
2019-03-22T10:05:47.433Z,3.01
2019-03-22T10:11:42.451Z,3.32
2019-03-22T10:17:37.447Z,3.32
2019-03-22T10:23:32.448Z,4.06
2019-03-22T10:29:27.453Z,3.67
2019-03-22T10:35:26.198Z,4.71
2019-03-22T10:41:17.466Z,3.98
2019-03-22T10:47:12.531Z,4.9
2019-03-22T10:53:07.546Z,4.99
2019-03-22T10:59:02.518Z,3.65
2019-03-22T11:04:57.708Z,4.82
2019-03-22T11:10:52.470Z,4.51
2019-03-22T11:16:47.498Z,4.87
2019-03-22T11:22:42.452Z,4.69
2019-03-22T11:28:37.486Z,3.95
2019-03-22T11:34:32.465Z,4.43
2019-03-22T11:40:27.494Z,4.21
2019-03-22T11:46:22.536Z,4.96
2019-03-22T11:52:17.576Z,4.91
2019-03-22T11:58:12.519Z,5.49
2019-03-22T12:04:07.521Z,5.76
2019-03-22T12:10:02.857Z,5.49
2019-03-22T12:15:57.848Z,5.46
2019-03-22T12:21:52.542Z,5.64
2019-03-22T12:27:48.434Z,4.62
2019-03-22T12:33:42.506Z,4.63
2019-03-22T12:39:37.519Z,4.73
2019-03-22T12:45:32.530Z,3.9
2019-03-22T12:51:27.529Z,4.38
2019-03-22T12:57:22.538Z,4.53
2019-03-22T13:03:17.537Z,3.79
2019-03-22T13:09:12.549Z,4.21
2019-03-22T13:15:07.551Z,4.3
2019-03-22T13:21:02.613Z,3.89
2019-03-22T13:26:57.541Z,4.11
2019-03-22T13:38:47.544Z,4.17
2019-03-22T13:38:47.589Z,4.45
2019-03-22T13:44:42.573Z,4.46
2019-03-22T13:50:37.565Z,5.56
2019-03-22T13:56:32.601Z,4.93
2019-03-22T14:02:27.557Z,5.56
2019-03-22T14:08:22.576Z,4.87
2019-03-22T14:14:17.583Z,5.64
2019-03-22T14:20:12.569Z,4.68
2019-03-22T14:26:07.563Z,4.99
2019-03-22T14:32:02.582Z,5.42
2019-03-22T14:37:57.797Z,5.25
2019-03-22T14:43:52.594Z,4.64
2019-03-22T14:49:47.611Z,5.03
2019-03-22T14:55:42.606Z,4.99
2019-03-22T15:01:37.611Z,4.54
2019-03-22T15:07:32.628Z,4.32
2019-03-22T15:13:27.629Z,4.69
2019-03-22T15:19:22.606Z,5.42
2019-03-22T15:25:17.625Z,4.37
2019-03-22T15:31:12.635Z,4.36
2019-03-22T15:37:07.681Z,4.17
2019-03-22T15:43:02.629Z,4.84
2019-03-22T15:48:57.918Z,4.59
2019-03-22T15:54:52.658Z,5.01
2019-03-22T16:00:47.677Z,5.3
2019-03-22T16:06:42.703Z,5.14
2019-03-22T16:12:37.711Z,6.42
2019-03-22T16:18:32.660Z,5
2019-03-22T16:24:27.676Z,5.52
2019-03-22T16:30:22.685Z,5.49
2019-03-22T16:36:17.680Z,5.72
2019-03-22T16:42:12.657Z,5.62
2019-03-22T16:48:07.678Z,5.09
2019-03-22T16:54:03.061Z,5.31
2019-03-22T16:59:57.885Z,5.16
2019-03-22T17:05:52.702Z,5.89
2019-03-22T17:11:47.689Z,5.14
2019-03-22T17:17:42.689Z,5.78
2019-03-22T17:23:37.700Z,5.93
2019-03-22T17:29:32.713Z,5.89
2019-03-22T17:35:27.725Z,5.33
2019-03-22T17:41:22.729Z,5.99
2019-03-22T17:47:17.754Z,6.52
2019-03-22T17:53:12.749Z,6.94
2019-03-22T17:59:07.723Z,6.5
2019-03-22T18:05:02.758Z,6.94
2019-03-22T18:10:57.735Z,6.57
2019-03-22T18:16:52.740Z,7.81
2019-03-22T18:22:47.757Z,7.17
2019-03-22T18:28:42.745Z,7.06
2019-03-22T18:34:37.761Z,8.18
2019-03-22T18:40:32.761Z,7.29
2019-03-22T18:46:27.753Z,6.89
2019-03-22T18:52:22.746Z,7.38
2019-03-22T18:58:18.034Z,8.36
2019-03-22T19:04:12.756Z,8.04
2019-03-22T19:10:07.835Z,9
2019-03-22T19:16:03.087Z,13.81
2019-03-22T19:21:57.818Z,12.76
2019-03-22T19:27:52.808Z,10.38
2019-03-22T19:33:47.772Z,12.34
2019-03-22T19:39:42.812Z,36.85
2019-03-22T19:45:37.795Z,19.06
2019-03-22T19:51:32.855Z,21.29
2019-03-22T19:57:27.802Z,13.44
2019-03-22T20:03:23.067Z,11.73
2019-03-22T20:09:17.818Z,11.57
2019-03-22T20:15:12.805Z,10.8
2019-03-22T20:21:07.858Z,9.73
2019-03-22T20:27:03.118Z,9.44
2019-03-22T20:32:57.803Z,9.96
2019-03-22T20:38:52.813Z,10.85
2019-03-22T20:44:47.897Z,10.13
2019-03-22T20:50:42.895Z,9.69
2019-03-22T20:56:37.847Z,10.01
2019-03-22T21:02:32.879Z,12
2019-03-22T21:08:27.851Z,14.01
2019-03-22T21:14:22.851Z,21.53
2019-03-22T21:20:17.862Z,20.96
2019-03-22T21:26:12.839Z,23.7
2019-03-22T21:32:07.863Z,11.7
2019-03-22T21:38:10.624Z,11.07
2019-03-22T21:43:57.887Z,10.32
2019-03-22T21:49:52.864Z,9.93
2019-03-22T21:55:47.869Z,9.81
2019-03-22T22:01:42.888Z,10.42
2019-03-22T22:07:37.895Z,9.96
2019-03-22T22:13:32.901Z,10.06
2019-03-22T22:19:27.897Z,9.38
2019-03-22T22:25:22.933Z,12.1
2019-03-22T22:31:17.894Z,14.37
2019-03-22T22:37:12.937Z,14.57
2019-03-22T22:43:08.202Z,12.53
2019-03-22T22:49:03.215Z,9.58
2019-03-22T22:54:57.921Z,11.1
2019-03-22T23:00:52.929Z,10.19
2019-03-22T23:06:47.936Z,10.06
2019-03-22T23:12:42.930Z,9.96
2019-03-22T23:18:37.933Z,9.68
2019-03-22T23:24:32.966Z,9.73
2019-03-22T23:30:27.950Z,9.1
2019-03-22T23:36:22.935Z,9.1
2019-03-22T23:42:17.994Z,8.81
2019-03-22T23:48:12.936Z,9.52
2019-03-22T23:54:08.041Z,8.38
